sensor_id;sensor_type;location;lat;lon;timestamp;temperature;humidity
5960;DHT22;3006;50.956;7.002;2023-11-18T00:00:23;4.30;99.90
5960;DHT22;3006;50.956;7.002;2023-11-18T00:02:51;4.20;99.90
5960;DHT22;3006;50.956;7.002;2023-11-18T00:05:20;4.10;99.90
5960;DHT22;3006;50.956;7.002;2023-11-18T00:07:48;4.10;99.90
5960;DHT22;3006;50.956;7.002;2023-11-18T00:10:17;4.10;99.90
5960;DHT22;3006;50.956;7.002;2023-11-18T00:12:46;3.90;99.90
5960;DHT22;3006;50.956;7.002;2023-11-18T00:15:14;4.00;99.90
5960;DHT22;3006;50.956;7.002;2023-11-18T00:17:42;4.00;99.90
5960;DHT22;3006;50.956;7.002;2023-11-18T00:20:11;3.90;99.90
5960;DHT22;3006;50.956;7.002;2023-11-18T00:22:40;4.00;99.90
5960;DHT22;3006;50.956;7.002;2023-11-18T00:25:09;4.00;99.90
5960;DHT22;3006;50.956;7.002;2023-11-18T00:27:38;4.20;99.90
5960;DHT22;3006;50.956;7.002;2023-11-18T00:30:08;4.10;99.90
5960;DHT22;3006;50.956;7.002;2023-11-18T00:32:38;4.10;99.90
5960;DHT22;3006;50.956;7.002;2023-11-18T00:35:07;4.20;99.90
5960;DHT22;3006;50.956;7.002;2023-11-18T00:37:37;4.20;99.90
5960;DHT22;3006;50.956;7.002;2023-11-18T00:40:08;4.20;99.90
5960;DHT22;3006;50.956;7.002;2023-11-18T00:42:36;4.30;99.90
5960;DHT22;3006;50.956;7.002;2023-11-18T00:45:07;4.40;99.90
5960;DHT22;3006;50.956;7.002;2023-11-18T00:47:35;4.40;99.90
5960;DHT22;3006;50.956;7.002;2023-11-18T00:50:04;4.40;99.90
5960;DHT22;3006;50.956;7.002;2023-11-18T00:52:35;4.40;99.90
5960;DHT22;3006;50.956;7.002;2023-11-18T00:55:06;4.30;99.90
5960;DHT22;3006;50.956;7.002;2023-11-18T00:57:35;4.20;99.90
5960;DHT22;3006;50.956;7.002;2023-11-18T01:00:10;4.10;99.90
5960;DHT22;3006;50.956;7.002;2023-11-18T01:02:41;4.10;99.90
5960;DHT22;3006;50.956;7.002;2023-11-18T01:05:09;4.20;99.90
5960;DHT22;3006;50.956;7.002;2023-11-18T01:07:38;4.10;99.90
5960;DHT22;3006;50.956;7.002;2023-11-18T01:10:08;4.10;99.90
5960;DHT22;3006;50.956;7.002;2023-11-18T01:12:37;4.10;99.90
5960;DHT22;3006;50.956;7.002;2023-11-18T01:15:07;4.10;99.90
5960;DHT22;3006;50.956;7.002;2023-11-18T01:17:37;4.20;99.90
5960;DHT22;3006;50.956;7.002;2023-11-18T01:20:07;4.20;99.90
5960;DHT22;3006;50.956;7.002;2023-11-18T01:22:38;4.30;99.90
5960;DHT22;3006;50.956;7.002;2023-11-18T01:25:09;4.40;99.90
5960;DHT22;3006;50.956;7.002;2023-11-18T01:27:37;4.40;99.90
5960;DHT22;3006;50.956;7.002;2023-11-18T01:30:09;4.30;99.90
5960;DHT22;3006;50.956;7.002;2023-11-18T01:32:38;4.30;99.90
5960;DHT22;3006;50.956;7.002;2023-11-18T01:35:08;4.20;99.90
5960;DHT22;3006;50.956;7.002;2023-11-18T01:37:37;4.20;99.90
5960;DHT22;3006;50.956;7.002;2023-11-18T01:40:06;4.20;99.90
5960;DHT22;3006;50.956;7.002;2023-11-18T01:42:35;4.20;99.90
5960;DHT22;3006;50.956;7.002;2023-11-18T01:45:04;4.30;99.90
5960;DHT22;3006;50.956;7.002;2023-11-18T01:47:40;4.20;99.90
5960;DHT22;3006;50.956;7.002;2023-11-18T01:50:10;4.20;99.90
5960;DHT22;3006;50.956;7.002;2023-11-18T01:52:41;4.20;99.90
5960;DHT22;3006;50.956;7.002;2023-11-18T01:55:13;4.20;99.90
5960;DHT22;3006;50.956;7.002;2023-11-18T01:57:41;4.20;99.90
5960;DHT22;3006;50.956;7.002;2023-11-18T02:00:12;4.40;99.90
5960;DHT22;3006;50.956;7.002;2023-11-18T02:02:46;4.40;99.90
5960;DHT22;3006;50.956;7.002;2023-11-18T02:05:15;4.30;99.90
5960;DHT22;3006;50.956;7.002;2023-11-18T02:07:45;4.30;99.90
5960;DHT22;3006;50.956;7.002;2023-11-18T02:10:14;4.40;99.90
5960;DHT22;3006;50.956;7.002;2023-11-18T02:12:49;4.30;99.90
5960;DHT22;3006;50.956;7.002;2023-11-18T02:15:21;4.40;99.90
5960;DHT22;3006;50.956;7.002;2023-11-18T02:17:53;4.40;99.90
5960;DHT22;3006;50.956;7.002;2023-11-18T02:20:21;4.40;99.90
5960;DHT22;3006;50.956;7.002;2023-11-18T02:22:51;4.40;99.90
5960;DHT22;3006;50.956;7.002;2023-11-18T02:25:21;4.40;99.90
5960;DHT22;3006;50.956;7.002;2023-11-18T02:27:55;4.40;99.90
5960;DHT22;3006;50.956;7.002;2023-11-18T02:30:24;4.50;99.90
5960;DHT22;3006;50.956;7.002;2023-11-18T02:32:59;4.50;99.90
5960;DHT22;3006;50.956;7.002;2023-11-18T02:35:35;4.30;99.90
5960;DHT22;3006;50.956;7.002;2023-11-18T02:38:04;4.30;99.90
5960;DHT22;3006;50.956;7.002;2023-11-18T02:40:37;4.20;99.90
5960;DHT22;3006;50.956;7.002;2023-11-18T02:43:09;4.30;99.90
5960;DHT22;3006;50.956;7.002;2023-11-18T02:45:38;4.30;99.90
5960;DHT22;3006;50.956;7.002;2023-11-18T02:48:09;4.30;99.90
5960;DHT22;3006;50.956;7.002;2023-11-18T02:50:37;4.40;99.90
5960;DHT22;3006;50.956;7.002;2023-11-18T02:53:08;4.40;99.90
5960;DHT22;3006;50.956;7.002;2023-11-18T02:55:37;4.40;99.90
5960;DHT22;3006;50.956;7.002;2023-11-18T02:58:09;4.30;99.90
5960;DHT22;3006;50.956;7.002;2023-11-18T03:00:37;4.40;99.90
5960;DHT22;3006;50.956;7.002;2023-11-18T03:03:05;4.30;99.90
5960;DHT22;3006;50.956;7.002;2023-11-18T03:05:34;4.30;99.90
5960;DHT22;3006;50.956;7.002;2023-11-18T03:08:03;4.30;99.90
5960;DHT22;3006;50.956;7.002;2023-11-18T03:10:33;4.40;99.90
5960;DHT22;3006;50.956;7.002;2023-11-18T03:13:01;4.40;99.90
5960;DHT22;3006;50.956;7.002;2023-11-18T03:15:31;4.40;99.90
5960;DHT22;3006;50.956;7.002;2023-11-18T03:17:59;4.40;99.90
5960;DHT22;3006;50.956;7.002;2023-11-18T03:20:29;4.30;99.90
5960;DHT22;3006;50.956;7.002;2023-11-18T03:22:59;4.40;99.90
5960;DHT22;3006;50.956;7.002;2023-11-18T03:25:27;4.40;99.90
5960;DHT22;3006;50.956;7.002;2023-11-18T03:27:56;4.30;99.90
5960;DHT22;3006;50.956;7.002;2023-11-18T03:30:24;4.30;99.90
5960;DHT22;3006;50.956;7.002;2023-11-18T03:32:54;4.30;99.90
5960;DHT22;3006;50.956;7.002;2023-11-18T03:35:23;4.30;99.90
5960;DHT22;3006;50.956;7.002;2023-11-18T03:37:51;4.30;99.90
5960;DHT22;3006;50.956;7.002;2023-11-18T03:40:19;4.30;99.90
5960;DHT22;3006;50.956;7.002;2023-11-18T03:42:47;4.30;99.90
5960;DHT22;3006;50.956;7.002;2023-11-18T03:45:16;4.20;99.90
5960;DHT22;3006;50.956;7.002;2023-11-18T03:47:45;4.30;99.90
5960;DHT22;3006;50.956;7.002;2023-11-18T03:50:15;4.30;99.90
5960;DHT22;3006;50.956;7.002;2023-11-18T03:52:44;4.40;99.90
5960;DHT22;3006;50.956;7.002;2023-11-18T03:55:12;4.40;99.90
5960;DHT22;3006;50.956;7.002;2023-11-18T03:57:39;4.40;99.90
5960;DHT22;3006;50.956;7.002;2023-11-18T04:00:08;4.30;99.90
5960;DHT22;3006;50.956;7.002;2023-11-18T04:02:39;4.40;99.90
5960;DHT22;3006;50.956;7.002;2023-11-18T04:05:08;4.40;99.90
5960;DHT22;3006;50.956;7.002;2023-11-18T04:07:38;4.40;99.90
5960;DHT22;3006;50.956;7.002;2023-11-18T04:10:09;4.30;99.90
5960;DHT22;3006;50.956;7.002;2023-11-18T04:12:38;4.30;99.90
5960;DHT22;3006;50.956;7.002;2023-11-18T04:15:07;4.30;99.90
5960;DHT22;3006;50.956;7.002;2023-11-18T04:17:38;4.30;99.90
5960;DHT22;3006;50.956;7.002;2023-11-18T04:20:09;4.30;99.90
5960;DHT22;3006;50.956;7.002;2023-11-18T04:22:40;4.30;99.90
5960;DHT22;3006;50.956;7.002;2023-11-18T04:25:08;4.30;99.90
5960;DHT22;3006;50.956;7.002;2023-11-18T04:27:37;4.40;99.90
5960;DHT22;3006;50.956;7.002;2023-11-18T04:30:06;4.40;99.90
5960;DHT22;3006;50.956;7.002;2023-11-18T04:32:35;4.40;99.90
5960;DHT22;3006;50.956;7.002;2023-11-18T04:35:04;4.40;99.90
5960;DHT22;3006;50.956;7.002;2023-11-18T04:37:37;4.40;99.90
5960;DHT22;3006;50.956;7.002;2023-11-18T04:40:08;4.40;99.90
5960;DHT22;3006;50.956;7.002;2023-11-18T04:42:40;4.30;99.90
5960;DHT22;3006;50.956;7.002;2023-11-18T04:45:11;4.30;99.90
5960;DHT22;3006;50.956;7.002;2023-11-18T04:47:41;4.20;99.90
5960;DHT22;3006;50.956;7.002;2023-11-18T04:50:11;4.20;99.90
5960;DHT22;3006;50.956;7.002;2023-11-18T04:52:39;4.20;99.90
5960;DHT22;3006;50.956;7.002;2023-11-18T04:55:10;4.10;99.90
5960;DHT22;3006;50.956;7.002;2023-11-18T04:57:40;4.20;99.90
5960;DHT22;3006;50.956;7.002;2023-11-18T05:00:09;4.20;99.90
5960;DHT22;3006;50.956;7.002;2023-11-18T05:02:38;4.10;99.90
5960;DHT22;3006;50.956;7.002;2023-11-18T05:05:07;4.10;99.90
5960;DHT22;3006;50.956;7.002;2023-11-18T05:07:35;4.10;99.90
5960;DHT22;3006;50.956;7.002;2023-11-18T05:10:07;4.20;99.90
5960;DHT22;3006;50.956;7.002;2023-11-18T05:12:37;4.20;99.90
5960;DHT22;3006;50.956;7.002;2023-11-18T05:15:07;4.20;99.90
5960;DHT22;3006;50.956;7.002;2023-11-18T05:17:36;4.20;99.90
5960;DHT22;3006;50.956;7.002;2023-11-18T05:20:06;4.20;99.90
5960;DHT22;3006;50.956;7.002;2023-11-18T05:22:36;4.30;99.90
5960;DHT22;3006;50.956;7.002;2023-11-18T05:25:05;4.30;99.90
5960;DHT22;3006;50.956;7.002;2023-11-18T05:27:34;4.30;99.90
5960;DHT22;3006;50.956;7.002;2023-11-18T05:30:05;4.30;99.90
5960;DHT22;3006;50.956;7.002;2023-11-18T05:32:33;4.40;99.90
5960;DHT22;3006;50.956;7.002;2023-11-18T05:35:01;4.40;99.90
5960;DHT22;3006;50.956;7.002;2023-11-18T05:37:32;4.40;99.90
5960;DHT22;3006;50.956;7.002;2023-11-18T05:40:06;4.30;99.90
5960;DHT22;3006;50.956;7.002;2023-11-18T05:42:35;4.40;99.90
5960;DHT22;3006;50.956;7.002;2023-11-18T05:45:08;4.30;99.90
5960;DHT22;3006;50.956;7.002;2023-11-18T05:47:44;4.20;99.90
5960;DHT22;3006;50.956;7.002;2023-11-18T05:50:12;4.30;99.90
5960;DHT22;3006;50.956;7.002;2023-11-18T05:52:41;4.30;99.90
5960;DHT22;3006;50.956;7.002;2023-11-18T05:55:10;4.30;99.90
5960;DHT22;3006;50.956;7.002;2023-11-18T05:57:38;4.40;99.90
5960;DHT22;3006;50.956;7.002;2023-11-18T06:00:09;4.40;99.90
5960;DHT22;3006;50.956;7.002;2023-11-18T06:02:39;4.30;99.90
5960;DHT22;3006;50.956;7.002;2023-11-18T06:05:08;4.30;99.90
5960;DHT22;3006;50.956;7.002;2023-11-18T06:07:36;4.30;99.90
5960;DHT22;3006;50.956;7.002;2023-11-18T06:10:07;4.30;99.90
5960;DHT22;3006;50.956;7.002;2023-11-18T06:12:35;4.30;99.90
5960;DHT22;3006;50.956;7.002;2023-11-18T06:15:08;4.40;99.90
5960;DHT22;3006;50.956;7.002;2023-11-18T06:17:43;4.40;99.90
5960;DHT22;3006;50.956;7.002;2023-11-18T06:20:12;4.40;99.90
5960;DHT22;3006;50.956;7.002;2023-11-18T06:22:41;4.40;99.90
5960;DHT22;3006;50.956;7.002;2023-11-18T06:25:09;4.30;99.90
5960;DHT22;3006;50.956;7.002;2023-11-18T06:27:39;4.30;99.90
5960;DHT22;3006;50.956;7.002;2023-11-18T06:30:11;4.30;99.90
5960;DHT22;3006;50.956;7.002;2023-11-18T06:32:39;4.40;99.90
5960;DHT22;3006;50.956;7.002;2023-11-18T06:35:08;4.40;99.90
5960;DHT22;3006;50.956;7.002;2023-11-18T06:37:36;4.40;99.90
5960;DHT22;3006;50.956;7.002;2023-11-18T06:40:05;4.40;99.90
5960;DHT22;3006;50.956;7.002;2023-11-18T06:42:43;4.30;99.90
5960;DHT22;3006;50.956;7.002;2023-11-18T06:45:15;4.50;99.90
5960;DHT22;3006;50.956;7.002;2023-11-18T06:47:43;4.40;99.90
5960;DHT22;3006;50.956;7.002;2023-11-18T06:50:12;4.40;99.90
5960;DHT22;3006;50.956;7.002;2023-11-18T06:52:42;4.40;99.90
5960;DHT22;3006;50.956;7.002;2023-11-18T06:55:14;4.30;99.90
5960;DHT22;3006;50.956;7.002;2023-11-18T06:57:43;4.40;99.90
5960;DHT22;3006;50.956;7.002;2023-11-18T07:00:12;4.40;99.90
5960;DHT22;3006;50.956;7.002;2023-11-18T07:02:42;4.50;99.90
5960;DHT22;3006;50.956;7.002;2023-11-18T07:05:11;4.40;99.90
5960;DHT22;3006;50.956;7.002;2023-11-18T07:07:41;4.40;99.90
5960;DHT22;3006;50.956;7.002;2023-11-18T07:10:10;4.40;99.90
5960;DHT22;3006;50.956;7.002;2023-11-18T07:12:40;4.40;99.90
5960;DHT22;3006;50.956;7.002;2023-11-18T07:15:08;4.50;99.90
5960;DHT22;3006;50.956;7.002;2023-11-18T07:17:37;4.50;99.90
5960;DHT22;3006;50.956;7.002;2023-11-18T07:20:08;4.50;99.90
5960;DHT22;3006;50.956;7.002;2023-11-18T07:22:40;4.50;99.90
5960;DHT22;3006;50.956;7.002;2023-11-18T07:25:08;4.50;99.90
5960;DHT22;3006;50.956;7.002;2023-11-18T07:27:36;4.50;99.90
5960;DHT22;3006;50.956;7.002;2023-11-18T07:30:06;4.50;99.90
5960;DHT22;3006;50.956;7.002;2023-11-18T07:32:37;4.50;99.90
5960;DHT22;3006;50.956;7.002;2023-11-18T07:35:08;4.50;99.90
5960;DHT22;3006;50.956;7.002;2023-11-18T07:37:37;4.50;99.90
5960;DHT22;3006;50.956;7.002;2023-11-18T07:40:06;4.50;99.90
5960;DHT22;3006;50.956;7.002;2023-11-18T07:42:39;4.70;99.90
5960;DHT22;3006;50.956;7.002;2023-11-18T07:45:08;4.70;99.90
5960;DHT22;3006;50.956;7.002;2023-11-18T07:47:45;4.70;99.90
5960;DHT22;3006;50.956;7.002;2023-11-18T07:50:17;4.70;99.90
5960;DHT22;3006;50.956;7.002;2023-11-18T07:52:47;4.70;99.90
5960;DHT22;3006;50.956;7.002;2023-11-18T07:55:15;4.80;99.90
5960;DHT22;3006;50.956;7.002;2023-11-18T07:57:45;4.80;99.90
5960;DHT22;3006;50.956;7.002;2023-11-18T08:00:14;4.70;99.90
5960;DHT22;3006;50.956;7.002;2023-11-18T08:02:42;4.70;99.90
5960;DHT22;3006;50.956;7.002;2023-11-18T08:05:11;4.90;99.90
5960;DHT22;3006;50.956;7.002;2023-11-18T08:07:43;4.90;99.90
5960;DHT22;3006;50.956;7.002;2023-11-18T08:10:13;4.90;99.90
5960;DHT22;3006;50.956;7.002;2023-11-18T08:12:46;5.00;99.90
5960;DHT22;3006;50.956;7.002;2023-11-18T08:15:14;5.00;99.90
5960;DHT22;3006;50.956;7.002;2023-11-18T08:17:43;5.00;99.90
5960;DHT22;3006;50.956;7.002;2023-11-18T08:20:11;5.10;99.90
5960;DHT22;3006;50.956;7.002;2023-11-18T08:22:43;5.00;99.90
5960;DHT22;3006;50.956;7.002;2023-11-18T08:25:12;5.10;99.90
5960;DHT22;3006;50.956;7.002;2023-11-18T08:27:42;5.10;99.90
5960;DHT22;3006;50.956;7.002;2023-11-18T08:30:11;5.10;99.90
5960;DHT22;3006;50.956;7.002;2023-11-18T08:32:42;5.20;99.90
5960;DHT22;3006;50.956;7.002;2023-11-18T08:35:12;5.30;99.90
5960;DHT22;3006;50.956;7.002;2023-11-18T08:37:43;5.20;99.90
5960;DHT22;3006;50.956;7.002;2023-11-18T08:40:12;5.80;99.90
5960;DHT22;3006;50.956;7.002;2023-11-18T08:42:43;8.20;99.90
5960;DHT22;3006;50.956;7.002;2023-11-18T08:45:16;9.40;87.30
5960;DHT22;3006;50.956;7.002;2023-11-18T08:47:45;8.90;87.80
5960;DHT22;3006;50.956;7.002;2023-11-18T08:50:14;9.60;84.40
5960;DHT22;3006;50.956;7.002;2023-11-18T08:52:45;10.20;81.60
5960;DHT22;3006;50.956;7.002;2023-11-18T08:55:14;10.80;80.10
5960;DHT22;3006;50.956;7.002;2023-11-18T08:57:48;10.30;80.10
5960;DHT22;3006;50.956;7.002;2023-11-18T09:00:26;10.30;80.50
5960;DHT22;3006;50.956;7.002;2023-11-18T09:03:18;10.50;79.80
5960;DHT22;3006;50.956;7.002;2023-11-18T09:05:52;9.60;82.60
5960;DHT22;3006;50.956;7.002;2023-11-18T09:08:33;10.40;79.30
5960;DHT22;3006;50.956;7.002;2023-11-18T09:11:04;10.40;79.60
5960;DHT22;3006;50.956;7.002;2023-11-18T09:13:33;9.80;83.00
5960;DHT22;3006;50.956;7.002;2023-11-18T09:16:04;8.60;84.70
5960;DHT22;3006;50.956;7.002;2023-11-18T09:18:35;7.00;92.70
5960;DHT22;3006;50.956;7.002;2023-11-18T09:21:09;6.50;96.70
5960;DHT22;3006;50.956;7.002;2023-11-18T09:23:44;6.20;98.90
5960;DHT22;3006;50.956;7.002;2023-11-18T09:26:14;6.20;99.80
5960;DHT22;3006;50.956;7.002;2023-11-18T09:28:43;6.10;99.90
5960;DHT22;3006;50.956;7.002;2023-11-18T09:31:12;6.10;99.90
5960;DHT22;3006;50.956;7.002;2023-11-18T09:33:42;6.10;99.90
5960;DHT22;3006;50.956;7.002;2023-11-18T09:36:20;6.10;99.90
5960;DHT22;3006;50.956;7.002;2023-11-18T09:38:51;6.10;99.90
5960;DHT22;3006;50.956;7.002;2023-11-18T09:41:22;6.10;99.90
5960;DHT22;3006;50.956;7.002;2023-11-18T09:43:52;6.10;99.90
5960;DHT22;3006;50.956;7.002;2023-11-18T09:46:24;6.20;99.90
5960;DHT22;3006;50.956;7.002;2023-11-18T09:49:06;6.10;99.90
5960;DHT22;3006;50.956;7.002;2023-11-18T09:51:43;6.20;99.90
5960;DHT22;3006;50.956;7.002;2023-11-18T09:54:19;6.20;99.90
5960;DHT22;3006;50.956;7.002;2023-11-18T09:56:56;6.40;99.90
5960;DHT22;3006;50.956;7.002;2023-11-18T09:59:42;6.30;99.90
5960;DHT22;3006;50.956;7.002;2023-11-18T10:02:12;6.40;99.90
5960;DHT22;3006;50.956;7.002;2023-11-18T10:04:41;6.40;99.90
5960;DHT22;3006;50.956;7.002;2023-11-18T10:07:13;6.40;99.90
5960;DHT22;3006;50.956;7.002;2023-11-18T10:09:45;6.50;99.90
5960;DHT22;3006;50.956;7.002;2023-11-18T10:12:15;6.50;99.90
5960;DHT22;3006;50.956;7.002;2023-11-18T10:14:50;6.50;99.90
5960;DHT22;3006;50.956;7.002;2023-11-18T10:17:19;6.50;99.90
5960;DHT22;3006;50.956;7.002;2023-11-18T10:19:53;6.60;99.90
5960;DHT22;3006;50.956;7.002;2023-11-18T10:22:24;6.60;99.90
5960;DHT22;3006;50.956;7.002;2023-11-18T10:24:56;6.50;99.90
5960;DHT22;3006;50.956;7.002;2023-11-18T10:27:28;6.60;99.90
5960;DHT22;3006;50.956;7.002;2023-11-18T10:29:56;6.70;99.90
5960;DHT22;3006;50.956;7.002;2023-11-18T10:32:24;6.70;99.90
5960;DHT22;3006;50.956;7.002;2023-11-18T10:34:56;6.70;99.90
5960;DHT22;3006;50.956;7.002;2023-11-18T10:37:25;6.70;99.90
5960;DHT22;3006;50.956;7.002;2023-11-18T10:40:03;6.80;99.90
5960;DHT22;3006;50.956;7.002;2023-11-18T10:42:32;6.70;99.90
5960;DHT22;3006;50.956;7.002;2023-11-18T10:45:00;6.70;99.90
5960;DHT22;3006;50.956;7.002;2023-11-18T10:47:32;6.70;99.90
5960;DHT22;3006;50.956;7.002;2023-11-18T10:50:03;6.70;99.90
5960;DHT22;3006;50.956;7.002;2023-11-18T10:52:31;6.80;99.90
5960;DHT22;3006;50.956;7.002;2023-11-18T10:55:06;6.80;99.90
5960;DHT22;3006;50.956;7.002;2023-11-18T10:57:40;6.80;99.90
5960;DHT22;3006;50.956;7.002;2023-11-18T11:00:11;6.80;99.90
5960;DHT22;3006;50.956;7.002;2023-11-18T11:02:42;6.90;99.90
5960;DHT22;3006;50.956;7.002;2023-11-18T11:05:11;6.90;99.90
5960;DHT22;3006;50.956;7.002;2023-11-18T11:07:48;6.90;99.90
5960;DHT22;3006;50.956;7.002;2023-11-18T11:10:20;7.00;99.90
5960;DHT22;3006;50.956;7.002;2023-11-18T11:12:55;7.00;99.90
5960;DHT22;3006;50.956;7.002;2023-11-18T11:15:30;7.00;99.90
5960;DHT22;3006;50.956;7.002;2023-11-18T11:18:18;7.00;99.90
5960;DHT22;3006;50.956;7.002;2023-11-18T11:20:57;7.00;99.90
5960;DHT22;3006;50.956;7.002;2023-11-18T11:23:37;7.00;99.90
5960;DHT22;3006;50.956;7.002;2023-11-18T11:26:23;7.00;99.90
5960;DHT22;3006;50.956;7.002;2023-11-18T11:29:04;7.10;99.90
5960;DHT22;3006;50.956;7.002;2023-11-18T11:31:38;7.20;99.80
5960;DHT22;3006;50.956;7.002;2023-11-18T11:34:13;7.20;99.90
5960;DHT22;3006;50.956;7.002;2023-11-18T11:36:44;7.10;99.90
5960;DHT22;3006;50.956;7.002;2023-11-18T11:39:13;7.00;99.90
5960;DHT22;3006;50.956;7.002;2023-11-18T11:41:51;7.00;99.90
5960;DHT22;3006;50.956;7.002;2023-11-18T11:44:21;7.00;99.90
5960;DHT22;3006;50.956;7.002;2023-11-18T11:46:58;7.00;99.90
5960;DHT22;3006;50.956;7.002;2023-11-18T11:49:33;7.00;99.90
5960;DHT22;3006;50.956;7.002;2023-11-18T11:52:09;7.00;99.90
5960;DHT22;3006;50.956;7.002;2023-11-18T11:54:45;7.00;99.90
5960;DHT22;3006;50.956;7.002;2023-11-18T11:57:18;7.00;99.90
5960;DHT22;3006;50.956;7.002;2023-11-18T11:59:56;7.00;99.90
5960;DHT22;3006;50.956;7.002;2023-11-18T12:02:26;7.00;99.90
5960;DHT22;3006;50.956;7.002;2023-11-18T12:04:57;7.00;99.90
5960;DHT22;3006;50.956;7.002;2023-11-18T12:07:26;7.00;99.90
5960;DHT22;3006;50.956;7.002;2023-11-18T12:09:55;7.00;99.90
5960;DHT22;3006;50.956;7.002;2023-11-18T12:12:27;7.00;99.90
5960;DHT22;3006;50.956;7.002;2023-11-18T12:14:58;7.00;99.90
5960;DHT22;3006;50.956;7.002;2023-11-18T12:20:44;7.00;99.90
5960;DHT22;3006;50.956;7.002;2023-11-18T12:23:15;7.00;99.90
5960;DHT22;3006;50.956;7.002;2023-11-18T12:25:45;7.00;99.90
5960;DHT22;3006;50.956;7.002;2023-11-18T12:28:17;7.00;99.90
5960;DHT22;3006;50.956;7.002;2023-11-18T12:30:48;7.00;99.90
5960;DHT22;3006;50.956;7.002;2023-11-18T12:34:00;7.10;99.90
5960;DHT22;3006;50.956;7.002;2023-11-18T12:37:01;7.10;99.90
5960;DHT22;3006;50.956;7.002;2023-11-18T12:40:20;7.10;99.90
5960;DHT22;3006;50.956;7.002;2023-11-18T12:43:09;7.00;99.90
5960;DHT22;3006;50.956;7.002;2023-11-18T12:46:26;7.10;99.90
5960;DHT22;3006;50.956;7.002;2023-11-18T12:49:00;7.20;99.90
5960;DHT22;3006;50.956;7.002;2023-11-18T12:51:32;7.20;99.90
5960;DHT22;3006;50.956;7.002;2023-11-18T12:54:03;7.20;99.90
5960;DHT22;3006;50.956;7.002;2023-11-18T12:56:34;7.10;99.90
5960;DHT22;3006;50.956;7.002;2023-11-18T12:59:03;7.10;99.90
5960;DHT22;3006;50.956;7.002;2023-11-18T13:01:35;7.20;99.90
5960;DHT22;3006;50.956;7.002;2023-11-18T13:04:03;7.20;99.90
5960;DHT22;3006;50.956;7.002;2023-11-18T13:06:32;7.20;99.90
5960;DHT22;3006;50.956;7.002;2023-11-18T13:09:00;7.20;99.90
5960;DHT22;3006;50.956;7.002;2023-11-18T13:11:32;7.20;99.90
5960;DHT22;3006;50.956;7.002;2023-11-18T13:14:01;7.20;99.90
5960;DHT22;3006;50.956;7.002;2023-11-18T13:16:30;7.20;99.90
5960;DHT22;3006;50.956;7.002;2023-11-18T13:18:59;7.30;99.90
5960;DHT22;3006;50.956;7.002;2023-11-18T13:21:28;7.20;99.90
5960;DHT22;3006;50.956;7.002;2023-11-18T13:23:57;7.20;99.90
5960;DHT22;3006;50.956;7.002;2023-11-18T13:26:26;7.20;99.90
5960;DHT22;3006;50.956;7.002;2023-11-18T13:28:54;7.20;99.90
5960;DHT22;3006;50.956;7.002;2023-11-18T13:31:22;7.20;99.90
5960;DHT22;3006;50.956;7.002;2023-11-18T13:33:51;7.30;99.90
5960;DHT22;3006;50.956;7.002;2023-11-18T13:36:21;7.20;99.90
5960;DHT22;3006;50.956;7.002;2023-11-18T13:38:50;7.20;99.90
5960;DHT22;3006;50.956;7.002;2023-11-18T13:41:31;7.30;99.90
5960;DHT22;3006;50.956;7.002;2023-11-18T13:43:59;7.30;99.90
5960;DHT22;3006;50.956;7.002;2023-11-18T13:46:27;7.20;99.90
5960;DHT22;3006;50.956;7.002;2023-11-18T13:48:57;7.30;99.90
5960;DHT22;3006;50.956;7.002;2023-11-18T13:51:27;7.20;99.90
5960;DHT22;3006;50.956;7.002;2023-11-18T13:53:57;7.20;99.90
5960;DHT22;3006;50.956;7.002;2023-11-18T13:56:26;7.20;99.90
5960;DHT22;3006;50.956;7.002;2023-11-18T13:58:55;7.20;99.90
5960;DHT22;3006;50.956;7.002;2023-11-18T14:01:24;7.20;99.90
5960;DHT22;3006;50.956;7.002;2023-11-18T14:03:54;7.20;99.90
5960;DHT22;3006;50.956;7.002;2023-11-18T14:06:30;7.20;99.90
5960;DHT22;3006;50.956;7.002;2023-11-18T14:08:58;7.20;99.90
5960;DHT22;3006;50.956;7.002;2023-11-18T14:11:27;7.20;99.90
5960;DHT22;3006;50.956;7.002;2023-11-18T14:13:56;7.20;99.90
5960;DHT22;3006;50.956;7.002;2023-11-18T14:16:25;7.20;99.90
5960;DHT22;3006;50.956;7.002;2023-11-18T14:18:53;7.20;99.90
5960;DHT22;3006;50.956;7.002;2023-11-18T14:21:21;7.20;99.90
5960;DHT22;3006;50.956;7.002;2023-11-18T14:23:51;7.20;99.90
5960;DHT22;3006;50.956;7.002;2023-11-18T14:26:22;7.20;99.90
5960;DHT22;3006;50.956;7.002;2023-11-18T14:28:51;7.20;99.90
5960;DHT22;3006;50.956;7.002;2023-11-18T14:31:19;7.20;99.90
5960;DHT22;3006;50.956;7.002;2023-11-18T14:33:49;7.20;99.90
5960;DHT22;3006;50.956;7.002;2023-11-18T14:36:18;7.20;99.90
5960;DHT22;3006;50.956;7.002;2023-11-18T14:38:47;7.20;99.90
5960;DHT22;3006;50.956;7.002;2023-11-18T14:41:16;7.20;99.90
5960;DHT22;3006;50.956;7.002;2023-11-18T14:43:47;7.20;99.90
5960;DHT22;3006;50.956;7.002;2023-11-18T14:46:15;7.20;99.90
5960;DHT22;3006;50.956;7.002;2023-11-18T14:48:43;7.20;99.90
5960;DHT22;3006;50.956;7.002;2023-11-18T14:51:11;7.20;99.90
5960;DHT22;3006;50.956;7.002;2023-11-18T14:53:39;7.20;99.90
5960;DHT22;3006;50.956;7.002;2023-11-18T14:56:08;7.20;99.90
5960;DHT22;3006;50.956;7.002;2023-11-18T14:58:38;7.20;99.90
5960;DHT22;3006;50.956;7.002;2023-11-18T15:01:06;7.20;99.90
5960;DHT22;3006;50.956;7.002;2023-11-18T15:03:34;7.20;99.90
5960;DHT22;3006;50.956;7.002;2023-11-18T15:06:03;7.10;99.90
5960;DHT22;3006;50.956;7.002;2023-11-18T15:08:32;7.10;99.90
5960;DHT22;3006;50.956;7.002;2023-11-18T15:11:07;7.20;99.90
5960;DHT22;3006;50.956;7.002;2023-11-18T15:13:37;7.00;99.90
5960;DHT22;3006;50.956;7.002;2023-11-18T15:16:06;7.00;99.90
5960;DHT22;3006;50.956;7.002;2023-11-18T15:18:35;7.00;99.90
5960;DHT22;3006;50.956;7.002;2023-11-18T15:21:03;7.00;99.90
5960;DHT22;3006;50.956;7.002;2023-11-18T15:23:32;7.00;99.90
5960;DHT22;3006;50.956;7.002;2023-11-18T15:26:00;7.00;99.90
5960;DHT22;3006;50.956;7.002;2023-11-18T15:28:28;7.00;99.90
5960;DHT22;3006;50.956;7.002;2023-11-18T15:30:59;7.00;99.90
5960;DHT22;3006;50.956;7.002;2023-11-18T15:33:29;7.00;99.90
5960;DHT22;3006;50.956;7.002;2023-11-18T15:35:59;7.00;99.90
5960;DHT22;3006;50.956;7.002;2023-11-18T15:38:28;7.00;99.90
5960;DHT22;3006;50.956;7.002;2023-11-18T15:40:56;7.00;99.90
5960;DHT22;3006;50.956;7.002;2023-11-18T15:43:25;7.00;99.90
5960;DHT22;3006;50.956;7.002;2023-11-18T15:45:55;7.00;99.90
5960;DHT22;3006;50.956;7.002;2023-11-18T15:48:26;7.00;99.90
5960;DHT22;3006;50.956;7.002;2023-11-18T15:50:56;7.00;99.90
5960;DHT22;3006;50.956;7.002;2023-11-18T15:53:26;7.00;99.90
5960;DHT22;3006;50.956;7.002;2023-11-18T15:55:55;7.00;99.90
5960;DHT22;3006;50.956;7.002;2023-11-18T15:58:23;7.00;99.90
5960;DHT22;3006;50.956;7.002;2023-11-18T16:00:53;7.00;99.90
5960;DHT22;3006;50.956;7.002;2023-11-18T16:03:21;7.00;99.90
5960;DHT22;3006;50.956;7.002;2023-11-18T16:05:51;7.00;99.90
5960;DHT22;3006;50.956;7.002;2023-11-18T16:08:19;7.10;99.90
5960;DHT22;3006;50.956;7.002;2023-11-18T16:10:47;7.00;99.90
5960;DHT22;3006;50.956;7.002;2023-11-18T16:13:16;7.00;99.90
5960;DHT22;3006;50.956;7.002;2023-11-18T16:15:44;7.00;99.90
5960;DHT22;3006;50.956;7.002;2023-11-18T16:18:12;7.00;99.90
5960;DHT22;3006;50.956;7.002;2023-11-18T16:20:40;7.00;99.90
5960;DHT22;3006;50.956;7.002;2023-11-18T16:23:10;7.00;99.90
5960;DHT22;3006;50.956;7.002;2023-11-18T16:25:38;7.00;99.90
5960;DHT22;3006;50.956;7.002;2023-11-18T16:28:07;7.00;99.90
5960;DHT22;3006;50.956;7.002;2023-11-18T16:30:35;7.00;99.90
5960;DHT22;3006;50.956;7.002;2023-11-18T16:33:04;7.00;99.90
5960;DHT22;3006;50.956;7.002;2023-11-18T16:35:34;7.00;99.90
5960;DHT22;3006;50.956;7.002;2023-11-18T16:38:03;7.00;99.90
5960;DHT22;3006;50.956;7.002;2023-11-18T16:40:32;7.00;99.90
5960;DHT22;3006;50.956;7.002;2023-11-18T16:43:01;7.00;99.90